createdAt,value
2019-04-05T00:00:08.129Z,100020.03
2019-04-05T00:02:36.729Z,100025.06
2019-04-05T00:05:04.013Z,100024.91
2019-04-05T00:07:30.569Z,100029.19
2019-04-05T00:09:57.398Z,100034.56
2019-04-05T00:12:24.146Z,100037.76
2019-04-05T00:14:51.279Z,100043.61
2019-04-05T00:17:18.149Z,100056.09
2019-04-05T00:19:44.987Z,100059.72
2019-04-05T00:22:11.576Z,100052.73
2019-04-05T00:24:40.413Z,100052.47
2019-04-05T00:27:07.214Z,100058.20
2019-04-05T00:29:33.796Z,100064.49
2019-04-05T00:32:00.764Z,100065.50
2019-04-05T00:34:28.239Z,100065.30
2019-04-05T00:36:54.901Z,100064.67
2019-04-05T00:39:21.742Z,100062.17
2019-04-05T00:41:48.355Z,100057.83
2019-04-05T00:44:15.503Z,100046.61
2019-04-05T00:46:44.870Z,100040.50
2019-04-05T00:49:12.326Z,100037.83
2019-04-05T00:51:40.713Z,100036.48
2019-04-05T00:54:08.227Z,100031.08
2019-04-05T00:56:35.095Z,100026.50
2019-04-05T00:59:01.772Z,100020.39
2019-04-05T01:01:28.651Z,100020.25
2019-04-05T01:03:55.869Z,100030.49
2019-04-05T01:06:23.235Z,100034.50
2019-04-05T01:08:50.526Z,100037.70
2019-04-05T01:11:17.590Z,100030.26
2019-04-05T01:13:44.412Z,100028.04
2019-04-05T01:16:11.128Z,100039.22
2019-04-05T01:18:37.843Z,100039.66
2019-04-05T01:21:04.895Z,100045.09
2019-04-05T01:23:35.076Z,100050.17
2019-04-05T01:26:03.245Z,100055.63
2019-04-05T01:28:31.608Z,100059.45
2019-04-05T01:30:58.684Z,100067.23
2019-04-05T01:33:25.516Z,100065.42
2019-04-05T01:35:52.471Z,100068.12
2019-04-05T01:38:20.716Z,100064.27
2019-04-05T01:40:47.855Z,100076.13
2019-04-05T01:43:15.409Z,100070.62
2019-04-05T01:45:53.035Z,100060.84
2019-04-05T01:48:10.680Z,100074.48
2019-04-05T01:50:40.565Z,100074.56
2019-04-05T01:53:08.300Z,100082.58
2019-04-05T01:55:35.481Z,100076.52
2019-04-05T01:58:02.203Z,100067.62
2019-04-05T02:00:29.064Z,100065.52
2019-04-05T02:02:56.436Z,100078.23
2019-04-05T02:05:23.273Z,100078.13
2019-04-05T02:07:50.316Z,100082.19
2019-04-05T02:10:17.064Z,100092.16
2019-04-05T02:12:44.435Z,100093.41
2019-04-05T02:15:22.560Z,100089.56
2019-04-05T02:17:49.634Z,100084.08
2019-04-05T02:20:16.628Z,100083.67
2019-04-05T02:22:43.354Z,100076.00
2019-04-05T02:25:10.617Z,100079.68
2019-04-05T02:27:38.068Z,100077.85
2019-04-05T02:30:05.607Z,100080.61
2019-04-05T02:32:32.292Z,100097.48
2019-04-05T02:34:59.962Z,100082.50
2019-04-05T02:37:26.977Z,100071.36
2019-04-05T02:39:53.988Z,100061.14
2019-04-05T02:42:23.883Z,100068.56
2019-04-05T02:44:52.307Z,100062.48
2019-04-05T02:47:19.618Z,100057.97
2019-04-05T02:49:46.406Z,100054.73
2019-04-05T02:52:15.221Z,100056.97
2019-04-05T02:54:42.516Z,100045.19
2019-04-05T02:57:09.246Z,100043.84
2019-04-05T02:59:36.202Z,100038.66
2019-04-05T03:02:05.084Z,100039.70
2019-04-05T03:04:32.187Z,100027.59
2019-04-05T03:06:59.979Z,100019.41
2019-04-05T03:09:26.811Z,100017.30
2019-04-05T03:11:53.785Z,100017.01
2019-04-05T03:14:20.487Z,100013.97
2019-04-05T03:16:49.771Z,100019.86
2019-04-05T03:19:19.266Z,100022.14
2019-04-05T03:21:50.297Z,100023.95
2019-04-05T03:24:20.057Z,100038.92
2019-04-05T03:27:08.905Z,100056.09
2019-04-05T03:29:36.965Z,100070.98
2019-04-05T03:32:04.781Z,100070.53
2019-04-05T03:34:31.488Z,100072.49
2019-04-05T03:36:59.322Z,100084.33
2019-04-05T03:39:26.239Z,100078.16
2019-04-05T03:41:53.727Z,100084.36
2019-04-05T03:44:23.146Z,100084.78
2019-04-05T03:46:57.069Z,100083.50
2019-04-05T03:49:18.949Z,100090.63
2019-04-05T03:51:46.141Z,100091.98
2019-04-05T03:54:14.204Z,100093.56
2019-04-05T03:56:40.983Z,100111.22
2019-04-05T03:59:07.724Z,100111.42
2019-04-05T04:01:35.231Z,100109.05
2019-04-05T04:04:02.527Z,100104.34
2019-04-05T04:06:29.412Z,100116.74
2019-04-05T04:08:57.327Z,100119.63
2019-04-05T04:11:26.698Z,100126.59
2019-04-05T04:13:54.291Z,100129.00
2019-04-05T04:16:22.232Z,100129.00
2019-04-05T04:18:50.117Z,100134.11
2019-04-05T04:21:31.835Z,100145.75
2019-04-05T04:23:59.616Z,100146.72
2019-04-05T04:26:28.843Z,100144.05
2019-04-05T04:28:56.556Z,100152.63
2019-04-05T04:31:23.719Z,100151.00
2019-04-05T04:33:50.856Z,100147.35
2019-04-05T04:36:17.826Z,100142.77
2019-04-05T04:38:44.609Z,100135.94
2019-04-05T04:41:12.099Z,100135.08
2019-04-05T04:43:39.101Z,100135.71
2019-04-05T04:46:06.832Z,100137.07
2019-04-05T04:48:33.860Z,100142.33
2019-04-05T04:51:02.507Z,100141.53
2019-04-05T04:53:30.189Z,100147.08
2019-04-05T04:55:57.377Z,100145.18
2019-04-05T04:58:24.262Z,100149.30
2019-04-05T05:00:52.449Z,100153.25
2019-04-05T05:03:19.749Z,100144.69
2019-04-05T05:05:46.665Z,100152.89
2019-04-05T05:08:14.129Z,100143.33
2019-04-05T05:10:40.960Z,100138.50
2019-04-05T05:13:07.700Z,100141.28
2019-04-05T05:15:34.984Z,100141.70
2019-04-05T05:18:01.916Z,100139.17
2019-04-05T05:20:30.829Z,100149.25
2019-04-05T05:22:58.070Z,100154.59
2019-04-05T05:25:25.228Z,100158.98
2019-04-05T05:27:52.491Z,100158.19
2019-04-05T05:30:20.784Z,100164.79
2019-04-05T05:32:47.775Z,100169.59
2019-04-05T05:35:15.248Z,100173.23
2019-04-05T05:37:42.245Z,100168.11
2019-04-05T05:40:10.321Z,100165.77
2019-04-05T05:42:37.114Z,100163.06
2019-04-05T05:45:04.290Z,100163.06
2019-04-05T05:47:31.610Z,100177.78
2019-04-05T05:49:59.060Z,100174.24
2019-04-05T05:52:26.161Z,100180.84
2019-04-05T05:54:53.428Z,100180.84
2019-04-05T05:57:20.227Z,100189.96
2019-04-05T05:59:47.244Z,100185.76
2019-04-05T06:02:13.996Z,100184.77
2019-04-05T06:04:40.774Z,100184.77
2019-04-05T06:07:07.645Z,100192.55
2019-04-05T06:09:34.254Z,100190.13
2019-04-05T06:12:01.359Z,100191.11
2019-04-05T06:14:28.127Z,100197.04
2019-04-05T06:16:54.986Z,100195.33
2019-04-05T06:19:21.839Z,100198.86
2019-04-05T06:21:53.958Z,100199.72
2019-04-05T06:24:21.652Z,100200.41
2019-04-05T06:26:49.283Z,100195.55
2019-04-05T06:29:16.684Z,100191.02
2019-04-05T06:31:43.916Z,100187.39
2019-04-05T06:34:10.726Z,100170.26
2019-04-05T06:36:37.795Z,100170.26
2019-04-05T06:39:06.463Z,100167.86
2019-04-05T06:41:33.422Z,100167.86
2019-04-05T06:44:00.294Z,100183.87
2019-04-05T06:46:26.892Z,100182.22
2019-04-05T06:48:54.588Z,100191.22
2019-04-05T06:51:21.902Z,100191.22
2019-04-05T06:53:48.673Z,100189.51
2019-04-05T06:56:17.261Z,100190.15
2019-04-05T06:58:46.299Z,100190.15
2019-04-05T07:01:13.716Z,100207.78
2019-04-05T07:03:40.762Z,100207.78
2019-04-05T07:06:07.743Z,100212.95
2019-04-05T07:08:34.938Z,100222.53
2019-04-05T07:11:02.848Z,100228.58
2019-04-05T07:13:29.546Z,100223.68
2019-04-05T07:15:56.731Z,100220.80
2019-04-05T07:18:33.995Z,100213.77
2019-04-05T07:20:52.165Z,100215.58
2019-04-05T07:23:18.758Z,100219.56
2019-04-05T07:25:45.797Z,100213.08
2019-04-05T07:28:13.206Z,100219.56
2019-04-05T07:30:41.040Z,100234.59
2019-04-05T07:33:08.377Z,100231.13
2019-04-05T07:35:37.740Z,100232.40
2019-04-05T07:38:04.754Z,100232.40
2019-04-05T07:40:32.519Z,100235.28
2019-04-05T07:42:59.985Z,100243.77
2019-04-05T07:45:26.649Z,100240.66
2019-04-05T07:47:54.310Z,100240.94
2019-04-05T07:50:21.514Z,100237.06
2019-04-05T07:52:49.293Z,100249.77
2019-04-05T07:55:16.279Z,100247.16
2019-04-05T07:57:43.069Z,100239.22
2019-04-05T08:00:23.001Z,100245.55
2019-04-05T08:02:52.773Z,100246.56
2019-04-05T08:05:19.571Z,100246.44
2019-04-05T08:07:48.374Z,100247.05
2019-04-05T08:10:16.107Z,100242.48
2019-04-05T08:12:43.565Z,100241.78
2019-04-05T08:15:10.808Z,100242.89
2019-04-05T08:17:37.746Z,100247.14
2019-04-05T08:20:05.204Z,100257.09
2019-04-05T08:22:33.014Z,100252.81
2019-04-05T08:24:59.918Z,100257.63
2019-04-05T08:27:27.063Z,100257.79
2019-04-05T08:29:53.639Z,100265.98
2019-04-05T08:32:20.261Z,100255.19
2019-04-05T08:34:47.302Z,100254.81
2019-04-05T08:37:14.577Z,100256.34
2019-04-05T08:39:43.355Z,100260.39
2019-04-05T08:42:10.953Z,100259.94
2019-04-05T08:44:39.141Z,100272.12
2019-04-05T08:47:07.944Z,100271.02
2019-04-05T08:49:34.767Z,100270.77
2019-04-05T08:52:01.360Z,100265.48
2019-04-05T08:54:32.719Z,100270.32
2019-04-05T08:56:56.629Z,100268.17
2019-04-05T08:59:49.984Z,100265.77
2019-04-05T09:10:07.961Z,100259.31
2019-04-05T09:10:24.849Z,100257.87
2019-04-05T09:14:06.690Z,100263.95
2019-04-05T09:16:59.184Z,100263.70
2019-04-05T09:20:13.558Z,100255.57
2019-04-05T09:23:37.335Z,100258.48
2019-04-05T09:26:14.390Z,100258.92
2019-04-05T09:29:12.126Z,100245.97
2019-04-05T09:31:45.931Z,100254.64
2019-04-05T09:34:42.697Z,100250.73
2019-04-05T09:37:57.940Z,100264.02
2019-04-05T09:40:43.678Z,100259.16
2019-04-05T09:43:32.999Z,100244.75
2019-04-05T09:46:16.475Z,100248.64
2019-04-05T09:49:11.067Z,100245.44
2019-04-05T09:51:52.047Z,100242.82
2019-04-05T09:54:26.178Z,100257.04
2019-04-05T09:57:58.670Z,100265.50
2019-04-05T10:01:36.456Z,100267.95
2019-04-05T10:08:14.070Z,100251.69
2019-04-05T10:11:01.548Z,100256.48
2019-04-05T10:13:37.824Z,100255.64
2019-04-05T10:16:23.545Z,100255.73
2019-04-05T10:18:54.185Z,100254.54
2019-04-05T10:21:27.952Z,100261.36
2019-04-05T10:24:00.419Z,100258.95
2019-04-05T10:26:30.241Z,100257.97
2019-04-05T10:28:57.355Z,100255.51
2019-04-05T10:31:24.045Z,100258.09
2019-04-05T10:33:51.124Z,100254.92
2019-04-05T10:36:19.957Z,100266.22
2019-04-05T10:38:46.605Z,100268.16
2019-04-05T10:41:15.412Z,100271.03
2019-04-05T10:43:45.509Z,100269.56
2019-04-05T10:46:13.154Z,100272.45
2019-04-05T10:48:43.057Z,100274.06
2019-04-05T10:51:10.347Z,100276.31
2019-04-05T10:53:37.184Z,100283.29
2019-04-05T10:56:04.007Z,100282.97
2019-04-05T10:58:39.090Z,100274.94
2019-04-05T11:01:06.557Z,100284.24
2019-04-05T11:03:38.723Z,100278.77
2019-04-05T11:06:05.632Z,100278.97
2019-04-05T11:08:32.487Z,100273.73
2019-04-05T11:11:00.260Z,100277.43
2019-04-05T11:13:27.021Z,100278.56
2019-04-05T11:15:56.707Z,100282.86
2019-04-05T11:18:23.840Z,100275.02
2019-04-05T11:20:50.691Z,100279.58
2019-04-05T11:23:21.062Z,100272.39
2019-04-05T11:25:50.790Z,100269.17
2019-04-05T11:28:19.867Z,100259.21
2019-04-05T11:30:47.755Z,100266.73
2019-04-05T11:33:20.864Z,100268.13
2019-04-05T11:35:48.309Z,100272.02
2019-04-05T11:38:18.379Z,100272.37
2019-04-05T11:40:47.556Z,100275.55
2019-04-05T11:43:14.959Z,100276.38
2019-04-05T11:45:41.898Z,100270.48
2019-04-05T11:48:08.751Z,100266.01
2019-04-05T11:50:35.587Z,100262.67
2019-04-05T11:53:03.460Z,100268.86
2019-04-05T11:55:30.568Z,100265.16
2019-04-05T11:57:57.643Z,100265.79
2019-04-05T12:00:33.526Z,100274.52
2019-04-05T12:03:09.681Z,100274.87
2019-04-05T12:05:37.744Z,100276.79
2019-04-05T12:18:32.516Z,100263.84
2019-04-05T12:19:51.686Z,100268.00
2019-04-05T12:22:35.564Z,100265.71
2019-04-05T13:38:36.338Z,100288.00
2019-04-05T13:41:04.213Z,100294.20
2019-04-05T13:43:33.693Z,100289.98
2019-04-05T13:46:00.752Z,100287.80
2019-04-05T13:48:27.900Z,100289.98
2019-04-05T13:50:55.289Z,100283.71
2019-04-05T13:53:21.995Z,100279.77
2019-04-05T13:55:52.496Z,100285.82
2019-04-05T13:58:19.837Z,100284.63
2019-04-05T14:00:48.747Z,100283.55
2019-04-05T14:03:15.320Z,100278.39
2019-04-05T14:05:42.153Z,100278.75
2019-04-05T14:08:11.029Z,100278.75
2019-04-05T14:10:39.670Z,100268.83
2019-04-05T14:13:07.629Z,100272.28
2019-04-05T14:15:35.225Z,100269.06
2019-04-05T14:18:06.239Z,100271.86
2019-04-05T14:20:32.962Z,100269.55
2019-04-05T14:23:00.486Z,100277.75
2019-04-05T14:25:30.153Z,100275.33
2019-04-05T14:27:56.800Z,100274.19
2019-04-05T14:30:23.548Z,100272.00
2019-04-05T14:32:51.141Z,100267.64
2019-04-05T14:35:19.805Z,100269.69
2019-04-05T14:37:48.358Z,100267.60
2019-04-05T14:40:15.446Z,100266.86
2019-04-05T14:42:44.584Z,100262.92
2019-04-05T14:45:12.454Z,100264.28
2019-04-05T14:47:43.498Z,100264.10
2019-04-05T14:50:10.658Z,100266.79
2019-04-05T14:53:00.758Z,100267.24
2019-04-05T14:55:27.620Z,100269.81
2019-04-05T14:57:55.671Z,100269.69
2019-04-05T15:00:22.474Z,100265.62
2019-04-05T15:02:49.256Z,100262.51
2019-04-05T15:05:16.123Z,100257.77
2019-04-05T15:07:42.907Z,100260.02
2019-04-05T15:10:09.703Z,100258.73
2019-04-05T15:12:36.571Z,100262.87
2019-04-05T15:15:25.030Z,100260.92
2019-04-05T15:17:51.940Z,100262.19
2019-04-05T15:20:19.139Z,100256.63
2019-04-05T15:22:46.148Z,100261.33
2019-04-05T15:25:16.644Z,100265.89
2019-04-05T15:27:41.910Z,100260.50
2019-04-05T15:30:08.695Z,100271.91
2019-04-05T15:32:36.238Z,100266.16
2019-04-05T15:35:03.498Z,100262.48
2019-04-05T15:37:32.531Z,100263.48
2019-04-05T15:40:01.049Z,100265.50
2019-04-05T15:42:27.648Z,100261.20
2019-04-05T15:44:54.676Z,100265.27
2019-04-05T15:47:23.518Z,100259.94
2019-04-05T15:49:52.044Z,100264.80
2019-04-05T15:52:19.738Z,100268.96
2019-04-05T15:54:46.370Z,100270.48
2019-04-05T15:57:13.031Z,100271.25
2019-04-05T15:59:40.161Z,100277.28
2019-04-05T16:02:06.926Z,100273.95
2019-04-05T16:04:33.748Z,100271.47
2019-04-05T16:07:00.588Z,100273.33
2019-04-05T16:09:27.512Z,100276.66
2019-04-05T16:11:55.052Z,100277.73
2019-04-05T16:14:21.752Z,100274.55
2019-04-05T16:16:48.511Z,100280.72
2019-04-05T16:19:15.085Z,100285.63
2019-04-05T16:21:42.186Z,100288.91
2019-04-05T16:24:08.919Z,100292.84
2019-04-05T16:26:35.594Z,100288.66
2019-04-05T16:29:02.343Z,100293.55
2019-04-05T16:31:29.076Z,100302.34
2019-04-05T16:33:56.735Z,100301.20
2019-04-05T16:36:23.545Z,100300.34
2019-04-05T16:38:50.549Z,100314.14
2019-04-05T16:41:17.519Z,100311.20
2019-04-05T16:43:44.706Z,100315.52
2019-04-05T16:46:12.315Z,100313.11
2019-04-05T16:48:39.043Z,100316.22
2019-04-05T16:51:05.760Z,100325.05
2019-04-05T16:53:32.472Z,100327.03
2019-04-05T16:55:59.123Z,100329.88
2019-04-05T16:58:25.840Z,100336.52
2019-04-05T17:00:52.505Z,100329.27
2019-04-05T17:03:21.718Z,100334.55
2019-04-05T17:05:48.946Z,100333.36
2019-04-05T17:08:16.934Z,100333.48
2019-04-05T17:10:44.603Z,100333.48
2019-04-05T17:13:11.485Z,100333.16
2019-04-05T17:15:38.110Z,100342.80
2019-04-05T17:18:07.059Z,100343.76
2019-04-05T17:20:34.750Z,100342.98
2019-04-05T17:23:01.449Z,100351.42
2019-04-05T17:25:28.287Z,100349.21
2019-04-05T17:28:06.908Z,100354.35
2019-04-05T17:30:36.192Z,100349.61
2019-04-05T17:33:03.425Z,100358.92
2019-04-05T17:35:30.196Z,100356.45
2019-04-05T17:37:56.830Z,100359.33
2019-04-05T17:40:23.526Z,100363.75
2019-04-05T17:42:50.546Z,100370.41
2019-04-05T17:45:17.271Z,100369.13
2019-04-05T17:47:45.410Z,100371.99
2019-04-05T17:50:18.877Z,100375.64
2019-04-05T17:52:45.809Z,100374.72
2019-04-05T17:55:12.535Z,100378.38
2019-04-05T17:57:39.902Z,100379.99
2019-04-05T18:00:11.056Z,100381.75
2019-04-05T18:02:37.857Z,100380.58
2019-04-05T18:05:04.902Z,100380.09
2019-04-05T18:07:31.839Z,100380.41
2019-04-05T18:09:58.618Z,100383.58
2019-04-05T18:12:25.411Z,100385.30
2019-04-05T18:14:52.450Z,100386.20
2019-04-05T18:17:19.165Z,100385.71
2019-04-05T18:19:45.949Z,100383.23
2019-04-05T18:22:12.850Z,100387.36
2019-04-05T18:24:39.918Z,100393.87
2019-04-05T18:27:08.003Z,100399.72
2019-04-05T18:29:34.735Z,100399.92
2019-04-05T18:32:02.985Z,100406.26
2019-04-05T18:34:29.819Z,100405.82
2019-04-05T18:36:56.551Z,100402.51
2019-04-05T18:39:23.926Z,100402.51
2019-04-05T18:41:50.607Z,100411.36
2019-04-05T18:44:17.551Z,100407.92
2019-04-05T18:46:44.293Z,100417.32
2019-04-05T18:49:11.025Z,100418.19
2019-04-05T18:51:37.992Z,100423.20
2019-04-05T18:54:05.775Z,100422.93
2019-04-05T18:56:32.797Z,100419.48
2019-04-05T18:58:59.416Z,100430.30
2019-04-05T19:01:26.400Z,100430.13
2019-04-05T19:03:53.010Z,100426.41
2019-04-05T19:06:19.596Z,100428.03
2019-04-05T19:08:46.268Z,100425.92
2019-04-05T19:11:12.916Z,100427.76
2019-04-05T19:13:39.964Z,100429.38
2019-04-05T19:16:06.791Z,100426.10
2019-04-05T19:18:35.147Z,100430.41
2019-04-05T19:21:03.208Z,100437.02
2019-04-05T19:23:29.871Z,100438.73
2019-04-05T19:25:57.131Z,100437.88
2019-04-05T19:28:24.853Z,100442.38
2019-04-05T19:48:32.790Z,100455.97
2019-04-05T19:50:45.505Z,100468.36
2019-04-05T19:53:12.548Z,100464.71
2019-04-05T19:55:39.123Z,100462.95
2019-04-05T19:58:06.182Z,100456.93
2019-04-05T20:00:33.162Z,100470.45
2019-04-05T20:03:00.200Z,100463.95
2019-04-05T20:05:27.949Z,100465.48
2019-04-05T20:07:54.662Z,100465.78
2019-04-05T20:10:21.204Z,100469.44
2019-04-05T20:12:47.860Z,100469.16
2019-04-05T20:15:14.651Z,100469.64
2019-04-05T20:17:41.714Z,100474.42
2019-04-05T20:20:09.873Z,100476.93
2019-04-05T20:22:38.071Z,100476.83
2019-04-05T20:25:05.641Z,100474.52
2019-04-05T20:27:32.461Z,100478.75
2019-04-05T20:29:59.071Z,100482.19
2019-04-05T20:32:25.946Z,100482.19
2019-04-05T20:34:52.671Z,100482.19
2019-04-05T20:37:19.430Z,100490.24
2019-04-05T20:39:46.172Z,100491.70
2019-04-05T20:42:12.934Z,100499.45
2019-04-05T20:44:39.508Z,100497.05
2019-04-05T20:47:06.157Z,100505.59
2019-04-05T20:49:32.868Z,100503.00
2019-04-05T20:51:59.661Z,100501.76
2019-04-05T20:54:26.905Z,100508.08
2019-04-05T20:56:53.576Z,100511.71
2019-04-05T20:59:20.837Z,100507.70
2019-04-05T21:01:47.530Z,100511.45
2019-04-05T21:04:15.323Z,100513.16
2019-04-05T21:06:42.250Z,100515.73
2019-04-05T21:09:09.090Z,100522.93
2019-04-05T21:11:35.858Z,100525.33
2019-04-05T21:14:02.520Z,100524.86
2019-04-05T21:16:29.768Z,100517.47
2019-04-05T21:18:56.441Z,100513.16
2019-04-05T21:21:24.057Z,100522.08
2019-04-05T21:23:51.109Z,100510.36
2019-04-05T21:26:19.815Z,100510.14
2019-04-05T21:28:46.418Z,100516.84
2019-04-05T21:31:13.230Z,100521.83
2019-04-05T21:33:40.717Z,100524.76
2019-04-05T21:36:07.422Z,100527.05
2019-04-05T21:38:34.724Z,100537.12
2019-04-05T21:41:01.661Z,100534.82
2019-04-05T21:43:28.516Z,100536.45
2019-04-05T21:45:55.445Z,100536.77
2019-04-05T21:48:22.084Z,100529.69
2019-04-05T21:50:48.753Z,100535.78
2019-04-05T21:53:15.769Z,100533.18
2019-04-05T21:55:43.083Z,100523.80
2019-04-05T21:58:10.333Z,100532.44
2019-04-05T22:00:44.914Z,100527.57
2019-04-05T22:03:13.500Z,100529.78
2019-04-05T22:05:41.483Z,100535.37
2019-04-05T22:08:08.535Z,100547.41
2019-04-05T22:10:36.019Z,100536.91
2019-04-05T22:13:04.471Z,100538.42
2019-04-05T22:15:31.297Z,100542.64
2019-04-05T22:17:57.935Z,100546.02
2019-04-05T22:20:24.882Z,100556.09
2019-04-05T22:22:51.699Z,100556.14
2019-04-05T22:25:18.757Z,100560.64
2019-04-05T22:27:45.882Z,100559.72
2019-04-05T22:30:12.800Z,100564.39
2019-04-05T22:32:39.454Z,100566.02
2019-04-05T22:35:06.140Z,100569.80
2019-04-05T22:37:33.125Z,100571.59
2019-04-05T22:40:00.785Z,100566.96
2019-04-05T22:42:27.433Z,100559.72
2019-04-05T22:44:53.976Z,100557.59
2019-04-05T22:47:21.560Z,100559.64
2019-04-05T22:49:48.244Z,100562.87
2019-04-05T22:52:14.879Z,100567.61
2019-04-05T22:54:41.933Z,100573.27
2019-04-05T22:57:08.900Z,100567.05
2019-04-05T22:59:37.396Z,100569.56
2019-04-05T23:02:04.103Z,100566.41
2019-04-05T23:04:31.865Z,100569.50
2019-04-05T23:06:58.445Z,100567.98
2019-04-05T23:09:28.149Z,100570.89
2019-04-05T23:11:55.166Z,100563.52
2019-04-05T23:14:22.331Z,100562.07
2019-04-05T23:16:49.099Z,100561.94
2019-04-05T23:19:15.942Z,100561.94
2019-04-05T23:21:42.989Z,100557.89
2019-04-05T23:24:09.609Z,100566.69
2019-04-05T23:26:36.179Z,100556.83
2019-04-05T23:29:03.799Z,100562.33
2019-04-05T23:31:30.765Z,100551.37
2019-04-05T23:33:57.521Z,100556.91
2019-04-05T23:36:25.145Z,100555.55
2019-04-05T23:38:52.144Z,100547.11
2019-04-05T23:41:18.829Z,100554.73
2019-04-05T23:43:45.418Z,100545.77
2019-04-05T23:46:13.096Z,100545.05
2019-04-05T23:48:40.353Z,100539.16
2019-04-05T23:51:07.522Z,100542.02
2019-04-05T23:53:34.190Z,100543.20
2019-04-05T23:56:01.286Z,100539.19
2019-04-05T23:58:27.967Z,100540.39
